sensor_id;sensor_type;location;lat;lon;timestamp;P1;durP1;ratioP1;P2;durP2;ratioP2
44764;SDS011;30484;52.382;5.260;2023-06-10T00:00:50;9.82;;;4.53;;
44764;SDS011;30484;52.382;5.260;2023-06-10T00:03:19;8.35;;;4.35;;
44764;SDS011;30484;52.382;5.260;2023-06-10T00:05:50;13.40;;;5.20;;
44764;SDS011;30484;52.382;5.260;2023-06-10T00:08:20;13.90;;;4.72;;
44764;SDS011;30484;52.382;5.260;2023-06-10T00:10:48;10.32;;;4.60;;
44764;SDS011;30484;52.382;5.260;2023-06-10T00:13:17;10.10;;;4.88;;
44764;SDS011;30484;52.382;5.260;2023-06-10T00:15:48;8.68;;;4.30;;
44764;SDS011;30484;52.382;5.260;2023-06-10T00:18:17;10.80;;;4.65;;
44764;SDS011;30484;52.382;5.260;2023-06-10T00:20:48;10.15;;;4.80;;
44764;SDS011;30484;52.382;5.260;2023-06-10T00:23:21;12.25;;;4.57;;
44764;SDS011;30484;52.382;5.260;2023-06-10T00:25:51;10.85;;;4.57;;
44764;SDS011;30484;52.382;5.260;2023-06-10T00:28:19;13.15;;;4.82;;
44764;SDS011;30484;52.382;5.260;2023-06-10T00:30:48;10.43;;;4.90;;
44764;SDS011;30484;52.382;5.260;2023-06-10T00:33:18;14.63;;;4.63;;
44764;SDS011;30484;52.382;5.260;2023-06-10T00:35:47;7.93;;;4.43;;
44764;SDS011;30484;52.382;5.260;2023-06-10T00:38:16;11.18;;;4.53;;
44764;SDS011;30484;52.382;5.260;2023-06-10T00:40:46;10.13;;;4.45;;
44764;SDS011;30484;52.382;5.260;2023-06-10T00:43:16;11.40;;;4.40;;
44764;SDS011;30484;52.382;5.260;2023-06-10T00:45:45;16.75;;;4.90;;
44764;SDS011;30484;52.382;5.260;2023-06-10T00:48:13;8.45;;;4.55;;
44764;SDS011;30484;52.382;5.260;2023-06-10T00:50:42;13.00;;;4.53;;
44764;SDS011;30484;52.382;5.260;2023-06-10T00:53:11;10.88;;;4.78;;
44764;SDS011;30484;52.382;5.260;2023-06-10T00:55:40;11.52;;;5.00;;
44764;SDS011;30484;52.382;5.260;2023-06-10T00:58:10;10.60;;;4.95;;
44764;SDS011;30484;52.382;5.260;2023-06-10T01:00:39;12.50;;;4.95;;
44764;SDS011;30484;52.382;5.260;2023-06-10T01:03:08;12.20;;;4.40;;
44764;SDS011;30484;52.382;5.260;2023-06-10T01:05:38;8.73;;;4.38;;
44764;SDS011;30484;52.382;5.260;2023-06-10T01:08:09;10.18;;;5.18;;
44764;SDS011;30484;52.382;5.260;2023-06-10T01:10:49;12.25;;;4.70;;
44764;SDS011;30484;52.382;5.260;2023-06-10T01:13:24;23.00;;;5.15;;
44764;SDS011;30484;52.382;5.260;2023-06-10T01:15:57;13.93;;;5.05;;
44764;SDS011;30484;52.382;5.260;2023-06-10T01:18:29;11.15;;;4.95;;
44764;SDS011;30484;52.382;5.260;2023-06-10T01:20:59;10.38;;;5.40;;
44764;SDS011;30484;52.382;5.260;2023-06-10T01:23:29;12.18;;;5.32;;
44764;SDS011;30484;52.382;5.260;2023-06-10T01:25:59;12.80;;;5.20;;
44764;SDS011;30484;52.382;5.260;2023-06-10T01:28:33;11.32;;;5.28;;
44764;SDS011;30484;52.382;5.260;2023-06-10T01:31:10;8.18;;;4.82;;
44764;SDS011;30484;52.382;5.260;2023-06-10T01:33:50;10.75;;;5.25;;
44764;SDS011;30484;52.382;5.260;2023-06-10T01:36:20;10.30;;;5.40;;
44764;SDS011;30484;52.382;5.260;2023-06-10T01:38:53;15.80;;;5.45;;
44764;SDS011;30484;52.382;5.260;2023-06-10T01:41:23;11.05;;;5.20;;
44764;SDS011;30484;52.382;5.260;2023-06-10T01:43:54;8.82;;;5.03;;
44764;SDS011;30484;52.382;5.260;2023-06-10T01:46:22;11.38;;;5.45;;
44764;SDS011;30484;52.382;5.260;2023-06-10T01:48:51;18.27;;;5.85;;
44764;SDS011;30484;52.382;5.260;2023-06-10T01:51:20;9.85;;;5.00;;
44764;SDS011;30484;52.382;5.260;2023-06-10T01:53:48;11.57;;;5.30;;
44764;SDS011;30484;52.382;5.260;2023-06-10T01:56:18;9.65;;;5.25;;
44764;SDS011;30484;52.382;5.260;2023-06-10T01:58:48;16.05;;;5.78;;
44764;SDS011;30484;52.382;5.260;2023-06-10T02:01:17;13.32;;;5.70;;
44764;SDS011;30484;52.382;5.260;2023-06-10T02:03:46;13.35;;;5.55;;
44764;SDS011;30484;52.382;5.260;2023-06-10T02:06:15;11.52;;;5.53;;
44764;SDS011;30484;52.382;5.260;2023-06-10T02:08:44;12.68;;;5.47;;
44764;SDS011;30484;52.382;5.260;2023-06-10T02:11:13;11.68;;;5.88;;
44764;SDS011;30484;52.382;5.260;2023-06-10T02:13:44;12.30;;;5.95;;
44764;SDS011;30484;52.382;5.260;2023-06-10T02:16:13;19.05;;;6.05;;
44764;SDS011;30484;52.382;5.260;2023-06-10T02:18:43;15.77;;;6.05;;
44764;SDS011;30484;52.382;5.260;2023-06-10T02:21:13;18.10;;;6.10;;
44764;SDS011;30484;52.382;5.260;2023-06-10T02:23:43;17.20;;;5.85;;
44764;SDS011;30484;52.382;5.260;2023-06-10T02:26:11;15.43;;;6.28;;
44764;SDS011;30484;52.382;5.260;2023-06-10T02:28:42;13.95;;;6.13;;
44764;SDS011;30484;52.382;5.260;2023-06-10T02:31:12;9.13;;;5.55;;
44764;SDS011;30484;52.382;5.260;2023-06-10T02:33:45;13.48;;;5.90;;
44764;SDS011;30484;52.382;5.260;2023-06-10T02:36:17;12.73;;;6.53;;
44764;SDS011;30484;52.382;5.260;2023-06-10T02:38:48;10.98;;;5.85;;
44764;SDS011;30484;52.382;5.260;2023-06-10T02:41:17;16.10;;;5.88;;
44764;SDS011;30484;52.382;5.260;2023-06-10T02:43:46;14.23;;;5.93;;
44764;SDS011;30484;52.382;5.260;2023-06-10T02:46:16;12.60;;;5.50;;
44764;SDS011;30484;52.382;5.260;2023-06-10T02:48:45;14.95;;;5.93;;
44764;SDS011;30484;52.382;5.260;2023-06-10T02:51:15;13.55;;;6.00;;
44764;SDS011;30484;52.382;5.260;2023-06-10T02:53:46;18.58;;;6.00;;
44764;SDS011;30484;52.382;5.260;2023-06-10T02:56:16;10.45;;;6.13;;
44764;SDS011;30484;52.382;5.260;2023-06-10T02:58:45;13.68;;;5.93;;
44764;SDS011;30484;52.382;5.260;2023-06-10T03:01:16;12.48;;;6.00;;
44764;SDS011;30484;52.382;5.260;2023-06-10T03:03:47;10.38;;;5.80;;
44764;SDS011;30484;52.382;5.260;2023-06-10T03:06:17;13.75;;;6.00;;
44764;SDS011;30484;52.382;5.260;2023-06-10T03:08:46;16.55;;;6.10;;
44764;SDS011;30484;52.382;5.260;2023-06-10T03:11:15;16.15;;;5.75;;
44764;SDS011;30484;52.382;5.260;2023-06-10T03:13:49;11.48;;;5.57;;
44764;SDS011;30484;52.382;5.260;2023-06-10T03:16:19;14.52;;;6.05;;
44764;SDS011;30484;52.382;5.260;2023-06-10T03:18:48;12.88;;;5.97;;
44764;SDS011;30484;52.382;5.260;2023-06-10T03:21:17;11.63;;;6.32;;
44764;SDS011;30484;52.382;5.260;2023-06-10T03:23:48;13.63;;;5.88;;
44764;SDS011;30484;52.382;5.260;2023-06-10T03:26:17;17.60;;;6.32;;
44764;SDS011;30484;52.382;5.260;2023-06-10T03:28:49;15.80;;;6.40;;
44764;SDS011;30484;52.382;5.260;2023-06-10T03:31:21;19.75;;;6.43;;
44764;SDS011;30484;52.382;5.260;2023-06-10T03:33:51;12.23;;;6.07;;
44764;SDS011;30484;52.382;5.260;2023-06-10T03:36:22;12.95;;;6.20;;
44764;SDS011;30484;52.382;5.260;2023-06-10T03:38:53;13.07;;;5.95;;
44764;SDS011;30484;52.382;5.260;2023-06-10T03:41:23;14.00;;;6.75;;
44764;SDS011;30484;52.382;5.260;2023-06-10T03:43:53;14.77;;;6.70;;
44764;SDS011;30484;52.382;5.260;2023-06-10T03:46:24;10.18;;;5.80;;
44764;SDS011;30484;52.382;5.260;2023-06-10T03:48:53;14.93;;;6.35;;
44764;SDS011;30484;52.382;5.260;2023-06-10T03:51:24;11.93;;;6.07;;
44764;SDS011;30484;52.382;5.260;2023-06-10T03:53:53;12.43;;;6.50;;
44764;SDS011;30484;52.382;5.260;2023-06-10T03:56:22;15.35;;;6.18;;
44764;SDS011;30484;52.382;5.260;2023-06-10T03:58:50;11.40;;;6.40;;
44764;SDS011;30484;52.382;5.260;2023-06-10T04:01:19;16.75;;;5.95;;
44764;SDS011;30484;52.382;5.260;2023-06-10T04:03:52;17.10;;;6.43;;
44764;SDS011;30484;52.382;5.260;2023-06-10T04:06:22;15.55;;;6.50;;
44764;SDS011;30484;52.382;5.260;2023-06-10T04:08:52;14.73;;;6.10;;
44764;SDS011;30484;52.382;5.260;2023-06-10T04:11:23;11.15;;;6.45;;
44764;SDS011;30484;52.382;5.260;2023-06-10T04:13:51;15.82;;;6.72;;
44764;SDS011;30484;52.382;5.260;2023-06-10T04:16:22;12.35;;;6.50;;
44764;SDS011;30484;52.382;5.260;2023-06-10T04:18:53;14.88;;;6.53;;
44764;SDS011;30484;52.382;5.260;2023-06-10T04:21:22;14.15;;;6.40;;
44764;SDS011;30484;52.382;5.260;2023-06-10T04:23:53;13.77;;;6.72;;
44764;SDS011;30484;52.382;5.260;2023-06-10T04:26:22;17.33;;;6.53;;
44764;SDS011;30484;52.382;5.260;2023-06-10T04:28:52;14.70;;;6.57;;
44764;SDS011;30484;52.382;5.260;2023-06-10T04:31:23;12.35;;;6.75;;
44764;SDS011;30484;52.382;5.260;2023-06-10T04:33:53;15.35;;;6.65;;
44764;SDS011;30484;52.382;5.260;2023-06-10T04:36:22;13.25;;;6.40;;
44764;SDS011;30484;52.382;5.260;2023-06-10T04:38:50;13.18;;;6.40;;
44764;SDS011;30484;52.382;5.260;2023-06-10T04:41:20;13.93;;;6.78;;
44764;SDS011;30484;52.382;5.260;2023-06-10T04:43:48;14.73;;;6.57;;
44764;SDS011;30484;52.382;5.260;2023-06-10T04:46:17;14.20;;;6.30;;
44764;SDS011;30484;52.382;5.260;2023-06-10T04:48:46;16.45;;;7.13;;
44764;SDS011;30484;52.382;5.260;2023-06-10T04:51:16;14.10;;;6.72;;
44764;SDS011;30484;52.382;5.260;2023-06-10T04:53:45;16.98;;;6.70;;
44764;SDS011;30484;52.382;5.260;2023-06-10T04:56:13;18.45;;;6.20;;
44764;SDS011;30484;52.382;5.260;2023-06-10T04:58:42;14.40;;;7.10;;
44764;SDS011;30484;52.382;5.260;2023-06-10T05:01:11;14.63;;;6.35;;
44764;SDS011;30484;52.382;5.260;2023-06-10T05:03:40;13.93;;;6.88;;
44764;SDS011;30484;52.382;5.260;2023-06-10T05:06:09;13.85;;;6.32;;
44764;SDS011;30484;52.382;5.260;2023-06-10T05:08:39;15.45;;;6.82;;
44764;SDS011;30484;52.382;5.260;2023-06-10T05:13:50;14.38;;;6.72;;
44764;SDS011;30484;52.382;5.260;2023-06-10T05:16:21;15.80;;;6.70;;
44764;SDS011;30484;52.382;5.260;2023-06-10T05:18:51;14.05;;;6.38;;
44764;SDS011;30484;52.382;5.260;2023-06-10T05:21:34;16.65;;;6.57;;
44764;SDS011;30484;52.382;5.260;2023-06-10T05:24:05;19.40;;;6.97;;
44764;SDS011;30484;52.382;5.260;2023-06-10T05:26:36;15.10;;;6.13;;
44764;SDS011;30484;52.382;5.260;2023-06-10T05:29:07;13.98;;;6.43;;
44764;SDS011;30484;52.382;5.260;2023-06-10T05:31:41;17.17;;;6.57;;
44764;SDS011;30484;52.382;5.260;2023-06-10T05:34:13;14.85;;;6.65;;
44764;SDS011;30484;52.382;5.260;2023-06-10T05:36:42;14.45;;;6.47;;
44764;SDS011;30484;52.382;5.260;2023-06-10T05:39:18;16.95;;;6.30;;
44764;SDS011;30484;52.382;5.260;2023-06-10T05:41:52;15.73;;;5.88;;
44764;SDS011;30484;52.382;5.260;2023-06-10T05:44:37;10.77;;;5.95;;
44764;SDS011;30484;52.382;5.260;2023-06-10T05:47:27;13.38;;;6.57;;
44764;SDS011;30484;52.382;5.260;2023-06-10T05:50:01;17.70;;;6.63;;
44764;SDS011;30484;52.382;5.260;2023-06-10T05:52:33;11.65;;;6.18;;
44764;SDS011;30484;52.382;5.260;2023-06-10T05:55:04;15.25;;;6.30;;
44764;SDS011;30484;52.382;5.260;2023-06-10T05:57:37;13.57;;;6.35;;
44764;SDS011;30484;52.382;5.260;2023-06-10T06:00:08;12.20;;;6.20;;
44764;SDS011;30484;52.382;5.260;2023-06-10T06:02:43;12.02;;;6.20;;
44764;SDS011;30484;52.382;5.260;2023-06-10T06:05:18;14.80;;;6.40;;
44764;SDS011;30484;52.382;5.260;2023-06-10T06:07:48;10.38;;;5.88;;
44764;SDS011;30484;52.382;5.260;2023-06-10T06:10:20;12.70;;;6.18;;
44764;SDS011;30484;52.382;5.260;2023-06-10T06:12:49;14.30;;;6.38;;
44764;SDS011;30484;52.382;5.260;2023-06-10T06:15:21;12.27;;;6.35;;
44764;SDS011;30484;52.382;5.260;2023-06-10T06:17:51;13.27;;;6.40;;
44764;SDS011;30484;52.382;5.260;2023-06-10T06:20:24;15.23;;;6.43;;
44764;SDS011;30484;52.382;5.260;2023-06-10T06:23:00;14.48;;;6.20;;
44764;SDS011;30484;52.382;5.260;2023-06-10T06:25:39;15.43;;;6.25;;
44764;SDS011;30484;52.382;5.260;2023-06-10T06:28:09;13.07;;;6.78;;
44764;SDS011;30484;52.382;5.260;2023-06-10T06:30:41;11.40;;;6.22;;
44764;SDS011;30484;52.382;5.260;2023-06-10T06:33:16;11.55;;;6.10;;
44764;SDS011;30484;52.382;5.260;2023-06-10T06:35:46;15.98;;;6.70;;
44764;SDS011;30484;52.382;5.260;2023-06-10T06:38:17;14.18;;;6.40;;
44764;SDS011;30484;52.382;5.260;2023-06-10T06:40:51;11.18;;;6.35;;
44764;SDS011;30484;52.382;5.260;2023-06-10T06:43:25;14.07;;;6.13;;
44764;SDS011;30484;52.382;5.260;2023-06-10T06:46:02;11.73;;;6.05;;
44764;SDS011;30484;52.382;5.260;2023-06-10T06:48:32;15.90;;;6.40;;
44764;SDS011;30484;52.382;5.260;2023-06-10T06:51:05;14.77;;;6.70;;
44764;SDS011;30484;52.382;5.260;2023-06-10T06:53:38;13.90;;;6.40;;
44764;SDS011;30484;52.382;5.260;2023-06-10T06:56:13;14.15;;;6.35;;
44764;SDS011;30484;52.382;5.260;2023-06-10T06:58:49;11.82;;;5.72;;
44764;SDS011;30484;52.382;5.260;2023-06-10T07:01:21;11.30;;;6.00;;
44764;SDS011;30484;52.382;5.260;2023-06-10T07:03:56;13.13;;;6.00;;
44764;SDS011;30484;52.382;5.260;2023-06-10T07:06:25;15.20;;;6.25;;
44764;SDS011;30484;52.382;5.260;2023-06-10T07:08:57;19.63;;;6.50;;
44764;SDS011;30484;52.382;5.260;2023-06-10T07:11:28;11.85;;;6.03;;
44764;SDS011;30484;52.382;5.260;2023-06-10T07:13:57;11.68;;;5.90;;
44764;SDS011;30484;52.382;5.260;2023-06-10T07:16:30;12.50;;;5.85;;
44764;SDS011;30484;52.382;5.260;2023-06-10T07:19:01;12.00;;;5.65;;
44764;SDS011;30484;52.382;5.260;2023-06-10T07:21:32;17.10;;;6.90;;
44764;SDS011;30484;52.382;5.260;2023-06-10T07:24:09;10.48;;;5.95;;
44764;SDS011;30484;52.382;5.260;2023-06-10T07:26:42;15.60;;;5.85;;
44764;SDS011;30484;52.382;5.260;2023-06-10T07:29:13;12.02;;;5.72;;
44764;SDS011;30484;52.382;5.260;2023-06-10T07:31:47;11.47;;;6.47;;
44764;SDS011;30484;52.382;5.260;2023-06-10T07:34:24;12.82;;;6.10;;
44764;SDS011;30484;52.382;5.260;2023-06-10T07:37:08;13.40;;;5.75;;
44764;SDS011;30484;52.382;5.260;2023-06-10T07:39:39;15.30;;;6.45;;
44764;SDS011;30484;52.382;5.260;2023-06-10T07:42:27;16.67;;;6.43;;
44764;SDS011;30484;52.382;5.260;2023-06-10T07:45:00;11.10;;;5.90;;
44764;SDS011;30484;52.382;5.260;2023-06-10T07:47:37;13.70;;;6.05;;
44764;SDS011;30484;52.382;5.260;2023-06-10T07:50:08;20.52;;;6.13;;
44764;SDS011;30484;52.382;5.260;2023-06-10T07:53:06;9.15;;;5.40;;
44764;SDS011;30484;52.382;5.260;2023-06-10T07:55:55;9.50;;;5.43;;
44764;SDS011;30484;52.382;5.260;2023-06-10T07:59:01;11.95;;;5.38;;
44764;SDS011;30484;52.382;5.260;2023-06-10T08:01:38;12.63;;;5.75;;
44764;SDS011;30484;52.382;5.260;2023-06-10T08:04:08;16.80;;;6.35;;
44764;SDS011;30484;52.382;5.260;2023-06-10T08:06:38;13.05;;;5.55;;
44764;SDS011;30484;52.382;5.260;2023-06-10T08:09:09;11.77;;;5.13;;
44764;SDS011;30484;52.382;5.260;2023-06-10T08:11:48;15.23;;;5.53;;
44764;SDS011;30484;52.382;5.260;2023-06-10T08:14:23;11.38;;;5.40;;
44764;SDS011;30484;52.382;5.260;2023-06-10T08:16:55;10.65;;;5.32;;
44764;SDS011;30484;52.382;5.260;2023-06-10T08:19:27;11.00;;;5.38;;
44764;SDS011;30484;52.382;5.260;2023-06-10T08:21:58;16.58;;;6.13;;
44764;SDS011;30484;52.382;5.260;2023-06-10T08:27:15;8.23;;;4.65;;
44764;SDS011;30484;52.382;5.260;2023-06-10T08:29:53;11.43;;;4.95;;
44764;SDS011;30484;52.382;5.260;2023-06-10T08:32:23;10.45;;;4.82;;
44764;SDS011;30484;52.382;5.260;2023-06-10T08:34:56;14.10;;;4.95;;
44764;SDS011;30484;52.382;5.260;2023-06-10T08:37:27;10.52;;;5.30;;
44764;SDS011;30484;52.382;5.260;2023-06-10T08:40:00;12.05;;;6.65;;
44764;SDS011;30484;52.382;5.260;2023-06-10T08:42:33;10.15;;;5.05;;
44764;SDS011;30484;52.382;5.260;2023-06-10T08:45:23;10.10;;;5.13;;
44764;SDS011;30484;52.382;5.260;2023-06-10T08:47:53;12.02;;;5.35;;
44764;SDS011;30484;52.382;5.260;2023-06-10T08:50:37;11.38;;;4.50;;
44764;SDS011;30484;52.382;5.260;2023-06-10T08:53:09;8.32;;;4.63;;
44764;SDS011;30484;52.382;5.260;2023-06-10T08:55:51;9.43;;;4.60;;
44764;SDS011;30484;52.382;5.260;2023-06-10T08:58:34;8.53;;;5.33;;
44764;SDS011;30484;52.382;5.260;2023-06-10T09:01:10;14.00;;;5.30;;
44764;SDS011;30484;52.382;5.260;2023-06-10T09:03:42;11.07;;;4.85;;
44764;SDS011;30484;52.382;5.260;2023-06-10T09:06:14;11.80;;;4.70;;
44764;SDS011;30484;52.382;5.260;2023-06-10T09:08:43;11.63;;;4.60;;
44764;SDS011;30484;52.382;5.260;2023-06-10T09:11:14;8.45;;;4.85;;
44764;SDS011;30484;52.382;5.260;2023-06-10T09:16:22;12.00;;;5.07;;
44764;SDS011;30484;52.382;5.260;2023-06-10T09:18:55;13.60;;;4.85;;
44764;SDS011;30484;52.382;5.260;2023-06-10T09:21:30;9.90;;;4.82;;
44764;SDS011;30484;52.382;5.260;2023-06-10T09:24:14;10.65;;;4.90;;
44764;SDS011;30484;52.382;5.260;2023-06-10T09:26:44;11.48;;;4.85;;
44764;SDS011;30484;52.382;5.260;2023-06-10T09:29:15;11.05;;;4.72;;
44764;SDS011;30484;52.382;5.260;2023-06-10T09:34:24;10.00;;;4.38;;
44764;SDS011;30484;52.382;5.260;2023-06-10T09:36:56;8.88;;;4.50;;
44764;SDS011;30484;52.382;5.260;2023-06-10T09:39:27;11.20;;;4.78;;
44764;SDS011;30484;52.382;5.260;2023-06-10T09:42:05;12.18;;;4.40;;
44764;SDS011;30484;52.382;5.260;2023-06-10T09:44:51;6.93;;;4.07;;
44764;SDS011;30484;52.382;5.260;2023-06-10T09:47:33;11.05;;;4.05;;
44764;SDS011;30484;52.382;5.260;2023-06-10T09:50:05;8.65;;;4.22;;
44764;SDS011;30484;52.382;5.260;2023-06-10T09:52:39;13.53;;;4.83;;
44764;SDS011;30484;52.382;5.260;2023-06-10T09:55:09;8.70;;;4.32;;
44764;SDS011;30484;52.382;5.260;2023-06-10T09:57:40;10.98;;;4.13;;
44764;SDS011;30484;52.382;5.260;2023-06-10T10:00:15;13.30;;;4.65;;
44764;SDS011;30484;52.382;5.260;2023-06-10T10:02:54;7.80;;;4.10;;
44764;SDS011;30484;52.382;5.260;2023-06-10T10:05:26;7.55;;;4.32;;
44764;SDS011;30484;52.382;5.260;2023-06-10T10:07:57;11.43;;;4.47;;
44764;SDS011;30484;52.382;5.260;2023-06-10T10:10:28;7.40;;;4.28;;
44764;SDS011;30484;52.382;5.260;2023-06-10T10:12:59;9.13;;;4.00;;
44764;SDS011;30484;52.382;5.260;2023-06-10T10:15:31;9.30;;;3.67;;
44764;SDS011;30484;52.382;5.260;2023-06-10T10:18:11;9.93;;;4.07;;
44764;SDS011;30484;52.382;5.260;2023-06-10T10:20:51;12.23;;;4.35;;
44764;SDS011;30484;52.382;5.260;2023-06-10T10:23:24;9.05;;;4.28;;
44764;SDS011;30484;52.382;5.260;2023-06-10T10:26:04;8.32;;;4.18;;
44764;SDS011;30484;52.382;5.260;2023-06-10T10:28:44;7.85;;;3.90;;
44764;SDS011;30484;52.382;5.260;2023-06-10T10:31:18;12.45;;;4.07;;
44764;SDS011;30484;52.382;5.260;2023-06-10T10:33:53;7.00;;;4.05;;
44764;SDS011;30484;52.382;5.260;2023-06-10T10:36:30;10.38;;;4.13;;
44764;SDS011;30484;52.382;5.260;2023-06-10T10:39:02;7.47;;;4.18;;
44764;SDS011;30484;52.382;5.260;2023-06-10T10:41:40;16.55;;;4.40;;
44764;SDS011;30484;52.382;5.260;2023-06-10T10:44:15;7.72;;;4.15;;
44764;SDS011;30484;52.382;5.260;2023-06-10T10:46:50;7.47;;;3.63;;
44764;SDS011;30484;52.382;5.260;2023-06-10T10:49:22;8.88;;;3.80;;
44764;SDS011;30484;52.382;5.260;2023-06-10T10:51:56;9.73;;;4.25;;
44764;SDS011;30484;52.382;5.260;2023-06-10T10:54:31;8.65;;;3.90;;
44764;SDS011;30484;52.382;5.260;2023-06-10T10:57:11;6.20;;;3.80;;
44764;SDS011;30484;52.382;5.260;2023-06-10T10:59:43;9.68;;;4.03;;
44764;SDS011;30484;52.382;5.260;2023-06-10T11:02:34;6.25;;;3.65;;
44764;SDS011;30484;52.382;5.260;2023-06-10T11:05:16;8.63;;;3.55;;
44764;SDS011;30484;52.382;5.260;2023-06-10T11:07:59;8.38;;;3.90;;
44764;SDS011;30484;52.382;5.260;2023-06-10T11:10:29;8.27;;;4.03;;
44764;SDS011;30484;52.382;5.260;2023-06-10T11:13:09;7.93;;;3.95;;
44764;SDS011;30484;52.382;5.260;2023-06-10T11:15:43;12.05;;;4.25;;
44764;SDS011;30484;52.382;5.260;2023-06-10T11:18:15;8.23;;;3.60;;
44764;SDS011;30484;52.382;5.260;2023-06-10T11:20:59;6.45;;;3.30;;
44764;SDS011;30484;52.382;5.260;2023-06-10T11:23:41;10.75;;;3.70;;
44764;SDS011;30484;52.382;5.260;2023-06-10T11:26:16;9.98;;;3.70;;
44764;SDS011;30484;52.382;5.260;2023-06-10T11:29:08;7.72;;;3.80;;
44764;SDS011;30484;52.382;5.260;2023-06-10T11:32:01;9.45;;;4.50;;
44764;SDS011;30484;52.382;5.260;2023-06-10T11:34:39;11.00;;;3.78;;
44764;SDS011;30484;52.382;5.260;2023-06-10T11:37:10;8.98;;;3.85;;
44764;SDS011;30484;52.382;5.260;2023-06-10T11:39:42;10.88;;;3.88;;
44764;SDS011;30484;52.382;5.260;2023-06-10T11:42:12;4.90;;;3.42;;
44764;SDS011;30484;52.382;5.260;2023-06-10T11:44:49;9.32;;;4.18;;
44764;SDS011;30484;52.382;5.260;2023-06-10T11:47:20;11.65;;;4.75;;
44764;SDS011;30484;52.382;5.260;2023-06-10T11:49:55;8.27;;;3.47;;
44764;SDS011;30484;52.382;5.260;2023-06-10T11:52:30;7.97;;;3.90;;
44764;SDS011;30484;52.382;5.260;2023-06-10T11:55:06;9.50;;;3.70;;
44764;SDS011;30484;52.382;5.260;2023-06-10T11:57:36;9.95;;;3.75;;
44764;SDS011;30484;52.382;5.260;2023-06-10T12:00:06;8.00;;;3.80;;
44764;SDS011;30484;52.382;5.260;2023-06-10T12:02:40;7.03;;;4.10;;
44764;SDS011;30484;52.382;5.260;2023-06-10T12:05:12;9.15;;;4.13;;
44764;SDS011;30484;52.382;5.260;2023-06-10T12:07:53;5.72;;;3.33;;
44764;SDS011;30484;52.382;5.260;2023-06-10T12:10:42;7.50;;;3.90;;
44764;SDS011;30484;52.382;5.260;2023-06-10T12:13:12;6.40;;;3.42;;
44764;SDS011;30484;52.382;5.260;2023-06-10T12:15:42;8.18;;;3.55;;
44764;SDS011;30484;52.382;5.260;2023-06-10T12:18:16;5.88;;;3.90;;
44764;SDS011;30484;52.382;5.260;2023-06-10T12:20:47;7.88;;;3.88;;
44764;SDS011;30484;52.382;5.260;2023-06-10T12:23:23;9.40;;;4.00;;
44764;SDS011;30484;52.382;5.260;2023-06-10T12:25:54;11.68;;;3.97;;
44764;SDS011;30484;52.382;5.260;2023-06-10T12:28:27;6.47;;;3.90;;
44764;SDS011;30484;52.382;5.260;2023-06-10T12:31:06;8.63;;;4.00;;
44764;SDS011;30484;52.382;5.260;2023-06-10T12:33:38;8.40;;;4.50;;
44764;SDS011;30484;52.382;5.260;2023-06-10T12:36:15;11.10;;;3.90;;
44764;SDS011;30484;52.382;5.260;2023-06-10T12:38:50;13.48;;;3.45;;
44764;SDS011;30484;52.382;5.260;2023-06-10T12:41:23;6.88;;;3.88;;
44764;SDS011;30484;52.382;5.260;2023-06-10T12:43:57;7.43;;;4.40;;
44764;SDS011;30484;52.382;5.260;2023-06-10T12:46:35;12.07;;;4.07;;
44764;SDS011;30484;52.382;5.260;2023-06-10T12:49:07;8.95;;;3.70;;
44764;SDS011;30484;52.382;5.260;2023-06-10T12:51:49;8.20;;;3.55;;
44764;SDS011;30484;52.382;5.260;2023-06-10T12:54:21;10.63;;;3.90;;
44764;SDS011;30484;52.382;5.260;2023-06-10T12:56:52;8.75;;;3.70;;
44764;SDS011;30484;52.382;5.260;2023-06-10T12:59:23;9.70;;;3.78;;
44764;SDS011;30484;52.382;5.260;2023-06-10T13:01:52;6.95;;;3.80;;
44764;SDS011;30484;52.382;5.260;2023-06-10T13:04:21;8.60;;;4.03;;
44764;SDS011;30484;52.382;5.260;2023-06-10T13:06:51;8.00;;;3.72;;
44764;SDS011;30484;52.382;5.260;2023-06-10T13:09:22;9.27;;;3.80;;
44764;SDS011;30484;52.382;5.260;2023-06-10T13:11:52;5.95;;;3.80;;
44764;SDS011;30484;52.382;5.260;2023-06-10T13:14:21;6.13;;;3.63;;
44764;SDS011;30484;52.382;5.260;2023-06-10T13:16:53;8.93;;;3.83;;
44764;SDS011;30484;52.382;5.260;2023-06-10T13:19:25;7.60;;;3.78;;
44764;SDS011;30484;52.382;5.260;2023-06-10T13:21:57;8.15;;;3.45;;
44764;SDS011;30484;52.382;5.260;2023-06-10T13:24:28;8.20;;;3.60;;
44764;SDS011;30484;52.382;5.260;2023-06-10T13:27:01;8.07;;;3.65;;
44764;SDS011;30484;52.382;5.260;2023-06-10T13:29:33;6.90;;;3.50;;
44764;SDS011;30484;52.382;5.260;2023-06-10T13:32:02;7.32;;;3.45;;
44764;SDS011;30484;52.382;5.260;2023-06-10T13:34:32;7.45;;;3.58;;
44764;SDS011;30484;52.382;5.260;2023-06-10T13:37:01;6.65;;;3.70;;
44764;SDS011;30484;52.382;5.260;2023-06-10T13:39:35;8.07;;;3.28;;
44764;SDS011;30484;52.382;5.260;2023-06-10T13:42:09;7.40;;;3.60;;
44764;SDS011;30484;52.382;5.260;2023-06-10T13:44:41;5.10;;;3.30;;
44764;SDS011;30484;52.382;5.260;2023-06-10T13:47:10;7.72;;;3.60;;
44764;SDS011;30484;52.382;5.260;2023-06-10T13:49:40;7.07;;;3.38;;
44764;SDS011;30484;52.382;5.260;2023-06-10T13:52:10;5.38;;;3.50;;
44764;SDS011;30484;52.382;5.260;2023-06-10T13:54:45;6.93;;;3.67;;
44764;SDS011;30484;52.382;5.260;2023-06-10T13:57:15;7.78;;;3.55;;
44764;SDS011;30484;52.382;5.260;2023-06-10T13:59:47;8.85;;;3.65;;
44764;SDS011;30484;52.382;5.260;2023-06-10T14:02:17;9.43;;;3.63;;
44764;SDS011;30484;52.382;5.260;2023-06-10T14:04:47;7.07;;;3.30;;
44764;SDS011;30484;52.382;5.260;2023-06-10T14:07:17;5.10;;;3.13;;
44764;SDS011;30484;52.382;5.260;2023-06-10T14:09:48;6.70;;;3.15;;
44764;SDS011;30484;52.382;5.260;2023-06-10T14:12:18;6.43;;;3.10;;
44764;SDS011;30484;52.382;5.260;2023-06-10T14:14:48;4.97;;;3.22;;
44764;SDS011;30484;52.382;5.260;2023-06-10T14:17:20;5.30;;;3.45;;
44764;SDS011;30484;52.382;5.260;2023-06-10T14:19:50;12.00;;;3.40;;
44764;SDS011;30484;52.382;5.260;2023-06-10T14:22:21;6.85;;;4.40;;
44764;SDS011;30484;52.382;5.260;2023-06-10T14:24:52;8.65;;;6.20;;
44764;SDS011;30484;52.382;5.260;2023-06-10T14:27:22;5.82;;;4.88;;
44764;SDS011;30484;52.382;5.260;2023-06-10T14:29:53;6.03;;;4.00;;
44764;SDS011;30484;52.382;5.260;2023-06-10T14:32:25;7.47;;;3.75;;
44764;SDS011;30484;52.382;5.260;2023-06-10T14:35:01;12.57;;;3.88;;
44764;SDS011;30484;52.382;5.260;2023-06-10T14:37:34;5.05;;;2.95;;
44764;SDS011;30484;52.382;5.260;2023-06-10T14:40:05;4.60;;;3.30;;
44764;SDS011;30484;52.382;5.260;2023-06-10T14:42:36;6.97;;;3.47;;
44764;SDS011;30484;52.382;5.260;2023-06-10T14:45:08;9.80;;;3.20;;
44764;SDS011;30484;52.382;5.260;2023-06-10T14:47:38;5.85;;;3.40;;
44764;SDS011;30484;52.382;5.260;2023-06-10T14:50:08;6.03;;;4.15;;
44764;SDS011;30484;52.382;5.260;2023-06-10T14:52:38;6.10;;;3.38;;
44764;SDS011;30484;52.382;5.260;2023-06-10T14:55:11;6.63;;;4.43;;
44764;SDS011;30484;52.382;5.260;2023-06-10T14:57:41;4.35;;;3.20;;
44764;SDS011;30484;52.382;5.260;2023-06-10T15:00:15;6.03;;;4.47;;
44764;SDS011;30484;52.382;5.260;2023-06-10T15:02:50;6.57;;;4.13;;
44764;SDS011;30484;52.382;5.260;2023-06-10T15:05:24;7.20;;;3.95;;
44764;SDS011;30484;52.382;5.260;2023-06-10T15:08:11;11.55;;;7.82;;
44764;SDS011;30484;52.382;5.260;2023-06-10T15:11:01;5.97;;;3.80;;
44764;SDS011;30484;52.382;5.260;2023-06-10T15:14:09;8.05;;;3.75;;
44764;SDS011;30484;52.382;5.260;2023-06-10T15:17:10;6.20;;;3.70;;
44764;SDS011;30484;52.382;5.260;2023-06-10T15:19:40;7.53;;;4.20;;
44764;SDS011;30484;52.382;5.260;2023-06-10T15:22:10;9.18;;;4.28;;